sensor_id;sensor_type;location;lat;lon;timestamp;pressure;altitude;pressure_sealevel;temperature
64960;BMP180;51487;52.266;10.542;2023-03-14T00:01:57;98145.00;;;10.30
64960;BMP180;51487;52.266;10.542;2023-03-14T00:04:23;98160.00;;;10.20
64960;BMP180;51487;52.266;10.542;2023-03-14T00:06:48;98157.00;;;10.10
64960;BMP180;51487;52.266;10.542;2023-03-14T00:09:15;98157.00;;;10.20
64960;BMP180;51487;52.266;10.542;2023-03-14T00:11:41;98139.00;;;10.20
64960;BMP180;51487;52.266;10.542;2023-03-14T00:14:07;98137.00;;;10.20
64960;BMP180;51487;52.266;10.542;2023-03-14T00:16:32;98131.00;;;10.20
64960;BMP180;51487;52.266;10.542;2023-03-14T00:18:59;98117.00;;;10.20
64960;BMP180;51487;52.266;10.542;2023-03-14T00:21:24;98116.00;;;10.30
64960;BMP180;51487;52.266;10.542;2023-03-14T00:23:51;98115.00;;;10.30
64960;BMP180;51487;52.266;10.542;2023-03-14T00:26:19;98119.00;;;10.40
64960;BMP180;51487;52.266;10.542;2023-03-14T00:28:46;98124.00;;;10.40
64960;BMP180;51487;52.266;10.542;2023-03-14T00:31:15;98107.00;;;10.50
64960;BMP180;51487;52.266;10.542;2023-03-14T00:33:42;98084.00;;;10.50
64960;BMP180;51487;52.266;10.542;2023-03-14T00:36:13;98091.00;;;10.50
64960;BMP180;51487;52.266;10.542;2023-03-14T00:38:41;98110.00;;;10.60
64960;BMP180;51487;52.266;10.542;2023-03-14T00:41:12;98126.00;;;10.70
64960;BMP180;51487;52.266;10.542;2023-03-14T00:43:39;98123.00;;;10.70
64960;BMP180;51487;52.266;10.542;2023-03-14T00:46:05;98130.00;;;10.70
64960;BMP180;51487;52.266;10.542;2023-03-14T00:48:31;98122.00;;;10.60
64960;BMP180;51487;52.266;10.542;2023-03-14T00:50:57;98126.00;;;10.60
64960;BMP180;51487;52.266;10.542;2023-03-14T00:53:23;98128.00;;;10.60
64960;BMP180;51487;52.266;10.542;2023-03-14T00:55:49;98120.00;;;10.70
64960;BMP180;51487;52.266;10.542;2023-03-14T00:58:16;98137.00;;;10.70
64960;BMP180;51487;52.266;10.542;2023-03-14T01:00:43;98143.00;;;10.60
64960;BMP180;51487;52.266;10.542;2023-03-14T01:03:11;98153.00;;;10.70
64960;BMP180;51487;52.266;10.542;2023-03-14T01:05:38;98154.00;;;10.80
64960;BMP180;51487;52.266;10.542;2023-03-14T01:08:05;98145.00;;;10.80
64960;BMP180;51487;52.266;10.542;2023-03-14T01:10:32;98140.00;;;10.70
64960;BMP180;51487;52.266;10.542;2023-03-14T01:12:58;98142.00;;;10.70
64960;BMP180;51487;52.266;10.542;2023-03-14T01:15:23;98129.00;;;10.80
64960;BMP180;51487;52.266;10.542;2023-03-14T01:17:49;98124.00;;;10.70
64960;BMP180;51487;52.266;10.542;2023-03-14T01:20:15;98116.00;;;10.80
64960;BMP180;51487;52.266;10.542;2023-03-14T01:22:42;98095.00;;;10.70
64960;BMP180;51487;52.266;10.542;2023-03-14T01:25:11;98115.00;;;10.70
64960;BMP180;51487;52.266;10.542;2023-03-14T01:27:38;98116.00;;;10.70
64960;BMP180;51487;52.266;10.542;2023-03-14T01:30:05;98127.00;;;10.70
64960;BMP180;51487;52.266;10.542;2023-03-14T01:32:33;98117.00;;;10.70
64960;BMP180;51487;52.266;10.542;2023-03-14T01:34:59;98108.00;;;10.70
64960;BMP180;51487;52.266;10.542;2023-03-14T01:37:24;98106.00;;;10.70
64960;BMP180;51487;52.266;10.542;2023-03-14T01:39:50;98085.00;;;10.70
64960;BMP180;51487;52.266;10.542;2023-03-14T01:42:16;98080.00;;;10.70
64960;BMP180;51487;52.266;10.542;2023-03-14T01:44:59;98072.00;;;10.60
64960;BMP180;51487;52.266;10.542;2023-03-14T01:47:26;98072.00;;;10.60
64960;BMP180;51487;52.266;10.542;2023-03-14T01:49:57;98067.00;;;10.60
64960;BMP180;51487;52.266;10.542;2023-03-14T01:52:35;98088.00;;;10.60
64960;BMP180;51487;52.266;10.542;2023-03-14T01:55:09;98105.00;;;10.60
64960;BMP180;51487;52.266;10.542;2023-03-14T01:57:42;98101.00;;;10.60
64960;BMP180;51487;52.266;10.542;2023-03-14T02:00:17;98089.00;;;10.50
64960;BMP180;51487;52.266;10.542;2023-03-14T02:02:49;98077.00;;;10.50
64960;BMP180;51487;52.266;10.542;2023-03-14T02:05:23;98072.00;;;10.40
64960;BMP180;51487;52.266;10.542;2023-03-14T02:07:56;98074.00;;;10.50
64960;BMP180;51487;52.266;10.542;2023-03-14T02:10:28;98062.00;;;10.50
64960;BMP180;51487;52.266;10.542;2023-03-14T02:13:00;98055.00;;;10.40
64960;BMP180;51487;52.266;10.542;2023-03-14T02:15:28;98049.00;;;10.40
64960;BMP180;51487;52.266;10.542;2023-03-14T02:17:54;98047.00;;;10.40
64960;BMP180;51487;52.266;10.542;2023-03-14T02:23:56;98036.00;;;10.40
64960;BMP180;51487;52.266;10.542;2023-03-14T02:26:38;98030.00;;;10.30
64960;BMP180;51487;52.266;10.542;2023-03-14T02:29:08;98032.00;;;10.30
64960;BMP180;51487;52.266;10.542;2023-03-14T02:31:34;98044.00;;;10.40
64960;BMP180;51487;52.266;10.542;2023-03-14T02:34:00;98047.00;;;10.40
64960;BMP180;51487;52.266;10.542;2023-03-14T02:36:28;98055.00;;;10.40
64960;BMP180;51487;52.266;10.542;2023-03-14T02:39:14;98056.00;;;10.40
64960;BMP180;51487;52.266;10.542;2023-03-14T02:41:46;98065.00;;;10.40
64960;BMP180;51487;52.266;10.542;2023-03-14T02:44:14;98069.00;;;10.30
64960;BMP180;51487;52.266;10.542;2023-03-14T02:46:39;98053.00;;;10.30
64960;BMP180;51487;52.266;10.542;2023-03-14T02:49:08;98052.00;;;10.40
64960;BMP180;51487;52.266;10.542;2023-03-14T02:51:37;98055.00;;;10.40
64960;BMP180;51487;52.266;10.542;2023-03-14T02:54:05;98048.00;;;10.40
64960;BMP180;51487;52.266;10.542;2023-03-14T02:56:31;98052.00;;;10.50
64960;BMP180;51487;52.266;10.542;2023-03-14T02:58:56;98037.00;;;10.40
64960;BMP180;51487;52.266;10.542;2023-03-14T03:01:23;98038.00;;;10.30
64960;BMP180;51487;52.266;10.542;2023-03-14T03:03:49;98032.00;;;10.30
64960;BMP180;51487;52.266;10.542;2023-03-14T03:06:15;98027.00;;;10.30
64960;BMP180;51487;52.266;10.542;2023-03-14T03:08:41;98022.00;;;10.20
64960;BMP180;51487;52.266;10.542;2023-03-14T03:11:06;98010.00;;;10.20
64960;BMP180;51487;52.266;10.542;2023-03-14T03:13:32;98004.00;;;10.20
64960;BMP180;51487;52.266;10.542;2023-03-14T03:15:58;98006.00;;;10.10
64960;BMP180;51487;52.266;10.542;2023-03-14T03:18:24;98001.00;;;10.10
64960;BMP180;51487;52.266;10.542;2023-03-14T03:20:49;97990.00;;;10.10
64960;BMP180;51487;52.266;10.542;2023-03-14T03:23:15;97990.00;;;10.10
64960;BMP180;51487;52.266;10.542;2023-03-14T03:25:41;97990.00;;;10.10
64960;BMP180;51487;52.266;10.542;2023-03-14T03:28:07;97983.00;;;10.10
64960;BMP180;51487;52.266;10.542;2023-03-14T03:30:40;97995.00;;;10.10
64960;BMP180;51487;52.266;10.542;2023-03-14T03:33:05;97987.00;;;10.10
64960;BMP180;51487;52.266;10.542;2023-03-14T03:35:32;97986.00;;;10.10
64960;BMP180;51487;52.266;10.542;2023-03-14T03:37:58;97990.00;;;10.10
64960;BMP180;51487;52.266;10.542;2023-03-14T03:40:23;97982.00;;;10.00
64960;BMP180;51487;52.266;10.542;2023-03-14T03:42:49;97982.00;;;9.90
64960;BMP180;51487;52.266;10.542;2023-03-14T03:45:14;97984.00;;;9.90
64960;BMP180;51487;52.266;10.542;2023-03-14T03:47:40;97968.00;;;9.90
64960;BMP180;51487;52.266;10.542;2023-03-14T03:50:05;97952.00;;;9.90
64960;BMP180;51487;52.266;10.542;2023-03-14T03:52:31;97968.00;;;9.90
64960;BMP180;51487;52.266;10.542;2023-03-14T03:54:57;97971.00;;;9.80
64960;BMP180;51487;52.266;10.542;2023-03-14T03:57:22;97978.00;;;9.80
64960;BMP180;51487;52.266;10.542;2023-03-14T03:59:48;97978.00;;;9.80
64960;BMP180;51487;52.266;10.542;2023-03-14T04:02:13;97970.00;;;9.80
64960;BMP180;51487;52.266;10.542;2023-03-14T04:04:39;97964.00;;;9.70
64960;BMP180;51487;52.266;10.542;2023-03-14T04:07:04;97967.00;;;9.70
64960;BMP180;51487;52.266;10.542;2023-03-14T04:09:30;97966.00;;;9.70
64960;BMP180;51487;52.266;10.542;2023-03-14T04:11:56;97972.00;;;9.70
64960;BMP180;51487;52.266;10.542;2023-03-14T04:14:22;97984.00;;;9.70
64960;BMP180;51487;52.266;10.542;2023-03-14T04:16:48;97985.00;;;9.60
64960;BMP180;51487;52.266;10.542;2023-03-14T04:19:14;97993.00;;;9.60
64960;BMP180;51487;52.266;10.542;2023-03-14T04:21:39;97987.00;;;9.60
64960;BMP180;51487;52.266;10.542;2023-03-14T04:24:09;97980.00;;;9.60
64960;BMP180;51487;52.266;10.542;2023-03-14T04:26:35;97973.00;;;9.60
64960;BMP180;51487;52.266;10.542;2023-03-14T04:29:01;97983.00;;;9.60
64960;BMP180;51487;52.266;10.542;2023-03-14T04:31:27;97980.00;;;9.70
64960;BMP180;51487;52.266;10.542;2023-03-14T04:33:53;97976.00;;;9.70
64960;BMP180;51487;52.266;10.542;2023-03-14T04:36:19;97986.00;;;9.70
64960;BMP180;51487;52.266;10.542;2023-03-14T04:38:44;97979.00;;;9.80
64960;BMP180;51487;52.266;10.542;2023-03-14T04:41:10;97995.00;;;9.70
64960;BMP180;51487;52.266;10.542;2023-03-14T04:43:36;97993.00;;;9.80
64960;BMP180;51487;52.266;10.542;2023-03-14T04:46:01;97992.00;;;9.90
64960;BMP180;51487;52.266;10.542;2023-03-14T04:48:27;97987.00;;;9.90
64960;BMP180;51487;52.266;10.542;2023-03-14T04:50:53;97990.00;;;9.90
64960;BMP180;51487;52.266;10.542;2023-03-14T04:53:19;97995.00;;;10.00
64960;BMP180;51487;52.266;10.542;2023-03-14T04:55:50;97995.00;;;10.10
64960;BMP180;51487;52.266;10.542;2023-03-14T04:58:17;97991.00;;;10.20
64960;BMP180;51487;52.266;10.542;2023-03-14T05:00:44;97982.00;;;10.10
64960;BMP180;51487;52.266;10.542;2023-03-14T05:03:09;97993.00;;;10.00
64960;BMP180;51487;52.266;10.542;2023-03-14T05:05:35;97984.00;;;9.90
64960;BMP180;51487;52.266;10.542;2023-03-14T05:08:01;97988.00;;;9.90
64960;BMP180;51487;52.266;10.542;2023-03-14T05:10:26;97980.00;;;9.90
64960;BMP180;51487;52.266;10.542;2023-03-14T05:12:51;97974.00;;;9.70
64960;BMP180;51487;52.266;10.542;2023-03-14T05:15:17;97986.00;;;9.70
64960;BMP180;51487;52.266;10.542;2023-03-14T05:17:42;97979.00;;;9.70
64960;BMP180;51487;52.266;10.542;2023-03-14T05:20:08;97987.00;;;9.60
64960;BMP180;51487;52.266;10.542;2023-03-14T05:22:35;97977.00;;;9.50
64960;BMP180;51487;52.266;10.542;2023-03-14T05:25:01;97975.00;;;9.50
64960;BMP180;51487;52.266;10.542;2023-03-14T05:27:26;97967.00;;;9.40
64960;BMP180;51487;52.266;10.542;2023-03-14T05:29:52;97971.00;;;9.40
64960;BMP180;51487;52.266;10.542;2023-03-14T05:32:17;97975.00;;;9.30
64960;BMP180;51487;52.266;10.542;2023-03-14T05:34:43;97971.00;;;9.30
64960;BMP180;51487;52.266;10.542;2023-03-14T05:37:08;97972.00;;;9.20
64960;BMP180;51487;52.266;10.542;2023-03-14T05:39:34;97978.00;;;9.20
64960;BMP180;51487;52.266;10.542;2023-03-14T05:41:59;97975.00;;;9.20
64960;BMP180;51487;52.266;10.542;2023-03-14T05:44:25;97970.00;;;9.20
64960;BMP180;51487;52.266;10.542;2023-03-14T05:46:50;97969.00;;;9.30
64960;BMP180;51487;52.266;10.542;2023-03-14T05:49:16;97976.00;;;9.30
64960;BMP180;51487;52.266;10.542;2023-03-14T05:51:41;97964.00;;;9.20
64960;BMP180;51487;52.266;10.542;2023-03-14T05:54:07;97961.00;;;9.20
64960;BMP180;51487;52.266;10.542;2023-03-14T05:56:33;97959.00;;;9.20
64960;BMP180;51487;52.266;10.542;2023-03-14T05:58:58;97960.00;;;9.20
64960;BMP180;51487;52.266;10.542;2023-03-14T06:01:27;97961.00;;;9.20
64960;BMP180;51487;52.266;10.542;2023-03-14T06:03:53;97962.00;;;9.20
64960;BMP180;51487;52.266;10.542;2023-03-14T06:06:18;97964.00;;;9.10
64960;BMP180;51487;52.266;10.542;2023-03-14T06:08:44;97963.00;;;9.20
64960;BMP180;51487;52.266;10.542;2023-03-14T06:11:09;97972.00;;;9.20
64960;BMP180;51487;52.266;10.542;2023-03-14T06:13:35;97971.00;;;9.20
64960;BMP180;51487;52.266;10.542;2023-03-14T06:16:01;97967.00;;;9.20
64960;BMP180;51487;52.266;10.542;2023-03-14T06:18:26;97985.00;;;9.20
64960;BMP180;51487;52.266;10.542;2023-03-14T06:20:55;97984.00;;;9.30
64960;BMP180;51487;52.266;10.542;2023-03-14T06:23:22;97977.00;;;9.30
64960;BMP180;51487;52.266;10.542;2023-03-14T06:25:48;97985.00;;;9.20
64960;BMP180;51487;52.266;10.542;2023-03-14T06:28:13;97990.00;;;9.20
64960;BMP180;51487;52.266;10.542;2023-03-14T06:30:39;97994.00;;;9.30
64960;BMP180;51487;52.266;10.542;2023-03-14T06:33:05;97993.00;;;9.30
64960;BMP180;51487;52.266;10.542;2023-03-14T06:35:30;97991.00;;;9.30
64960;BMP180;51487;52.266;10.542;2023-03-14T06:37:56;97997.00;;;9.20
64960;BMP180;51487;52.266;10.542;2023-03-14T06:40:22;97997.00;;;9.20
64960;BMP180;51487;52.266;10.542;2023-03-14T06:42:48;97995.00;;;9.20
64960;BMP180;51487;52.266;10.542;2023-03-14T06:45:14;97992.00;;;9.20
64960;BMP180;51487;52.266;10.542;2023-03-14T06:47:39;97995.00;;;9.30
64960;BMP180;51487;52.266;10.542;2023-03-14T06:50:06;98001.00;;;9.40
64960;BMP180;51487;52.266;10.542;2023-03-14T06:52:34;97994.00;;;9.40
64960;BMP180;51487;52.266;10.542;2023-03-14T06:54:59;97997.00;;;9.60
64960;BMP180;51487;52.266;10.542;2023-03-14T06:57:25;97995.00;;;9.80
64960;BMP180;51487;52.266;10.542;2023-03-14T06:59:51;97996.00;;;10.00
64960;BMP180;51487;52.266;10.542;2023-03-14T07:02:16;97993.00;;;10.00
64960;BMP180;51487;52.266;10.542;2023-03-14T07:04:42;97984.00;;;10.20
64960;BMP180;51487;52.266;10.542;2023-03-14T07:07:07;97995.00;;;10.40
64960;BMP180;51487;52.266;10.542;2023-03-14T07:09:34;97983.00;;;10.50
64960;BMP180;51487;52.266;10.542;2023-03-14T07:12:00;97993.00;;;10.70
64960;BMP180;51487;52.266;10.542;2023-03-14T07:14:25;97982.00;;;10.70
64960;BMP180;51487;52.266;10.542;2023-03-14T07:16:51;97990.00;;;10.80
64960;BMP180;51487;52.266;10.542;2023-03-14T07:19:16;97979.00;;;10.80
64960;BMP180;51487;52.266;10.542;2023-03-14T07:21:42;97972.00;;;10.70
64960;BMP180;51487;52.266;10.542;2023-03-14T07:24:07;97986.00;;;10.70
64960;BMP180;51487;52.266;10.542;2023-03-14T07:26:33;97981.00;;;10.50
64960;BMP180;51487;52.266;10.542;2023-03-14T07:28:59;97983.00;;;10.60
64960;BMP180;51487;52.266;10.542;2023-03-14T07:31:25;97990.00;;;10.80
64960;BMP180;51487;52.266;10.542;2023-03-14T07:33:50;97979.00;;;10.90
64960;BMP180;51487;52.266;10.542;2023-03-14T07:36:16;97992.00;;;10.80
64960;BMP180;51487;52.266;10.542;2023-03-14T07:38:41;97983.00;;;10.80
64960;BMP180;51487;52.266;10.542;2023-03-14T07:41:08;97978.00;;;10.80
64960;BMP180;51487;52.266;10.542;2023-03-14T07:43:34;97975.00;;;10.80
64960;BMP180;51487;52.266;10.542;2023-03-14T07:45:59;97971.00;;;10.90
64960;BMP180;51487;52.266;10.542;2023-03-14T07:48:25;97973.00;;;10.90
64960;BMP180;51487;52.266;10.542;2023-03-14T07:50:52;97978.00;;;11.00
64960;BMP180;51487;52.266;10.542;2023-03-14T07:53:20;97976.00;;;10.90
64960;BMP180;51487;52.266;10.542;2023-03-14T07:55:46;97977.00;;;10.70
64960;BMP180;51487;52.266;10.542;2023-03-14T07:58:12;97970.00;;;10.80
64960;BMP180;51487;52.266;10.542;2023-03-14T08:00:39;97965.00;;;11.00
64960;BMP180;51487;52.266;10.542;2023-03-14T08:03:04;97965.00;;;11.00
64960;BMP180;51487;52.266;10.542;2023-03-14T08:05:30;97974.00;;;10.80
64960;BMP180;51487;52.266;10.542;2023-03-14T08:07:59;97965.00;;;10.80
64960;BMP180;51487;52.266;10.542;2023-03-14T08:10:25;97964.00;;;10.70
64960;BMP180;51487;52.266;10.542;2023-03-14T08:12:54;97962.00;;;10.70
64960;BMP180;51487;52.266;10.542;2023-03-14T08:15:21;97954.00;;;10.80
64960;BMP180;51487;52.266;10.542;2023-03-14T08:17:47;97962.00;;;10.80
64960;BMP180;51487;52.266;10.542;2023-03-14T08:20:17;97949.00;;;11.20
64960;BMP180;51487;52.266;10.542;2023-03-14T08:22:43;97942.00;;;11.40
64960;BMP180;51487;52.266;10.542;2023-03-14T08:25:09;97938.00;;;11.60
64960;BMP180;51487;52.266;10.542;2023-03-14T08:27:34;97941.00;;;11.80
64960;BMP180;51487;52.266;10.542;2023-03-14T08:30:02;97943.00;;;11.80
64960;BMP180;51487;52.266;10.542;2023-03-14T08:32:29;97937.00;;;11.90
64960;BMP180;51487;52.266;10.542;2023-03-14T08:34:55;97940.00;;;11.90
64960;BMP180;51487;52.266;10.542;2023-03-14T08:37:21;97945.00;;;12.00
64960;BMP180;51487;52.266;10.542;2023-03-14T08:39:49;97944.00;;;12.10
64960;BMP180;51487;52.266;10.542;2023-03-14T08:42:15;97944.00;;;12.10
64960;BMP180;51487;52.266;10.542;2023-03-14T08:44:40;97936.00;;;12.00
64960;BMP180;51487;52.266;10.542;2023-03-14T08:47:07;97942.00;;;12.10
64960;BMP180;51487;52.266;10.542;2023-03-14T08:49:32;97956.00;;;12.20
64960;BMP180;51487;52.266;10.542;2023-03-14T08:51:58;97944.00;;;12.30
64960;BMP180;51487;52.266;10.542;2023-03-14T08:54:24;97946.00;;;12.40
64960;BMP180;51487;52.266;10.542;2023-03-14T08:56:49;97945.00;;;12.40
64960;BMP180;51487;52.266;10.542;2023-03-14T08:59:15;97942.00;;;12.40
64960;BMP180;51487;52.266;10.542;2023-03-14T09:01:40;97950.00;;;12.50
64960;BMP180;51487;52.266;10.542;2023-03-14T09:04:06;97948.00;;;12.40
64960;BMP180;51487;52.266;10.542;2023-03-14T09:06:32;97949.00;;;12.30
64960;BMP180;51487;52.266;10.542;2023-03-14T09:08:57;97958.00;;;12.30
64960;BMP180;51487;52.266;10.542;2023-03-14T09:11:23;97954.00;;;12.30
64960;BMP180;51487;52.266;10.542;2023-03-14T09:13:49;97952.00;;;12.20
64960;BMP180;51487;52.266;10.542;2023-03-14T09:16:14;97952.00;;;12.30
64960;BMP180;51487;52.266;10.542;2023-03-14T09:18:40;97947.00;;;12.30
64960;BMP180;51487;52.266;10.542;2023-03-14T09:21:05;97954.00;;;12.30
64960;BMP180;51487;52.266;10.542;2023-03-14T09:23:31;97962.00;;;12.60
64960;BMP180;51487;52.266;10.542;2023-03-14T09:25:58;97961.00;;;12.40
64960;BMP180;51487;52.266;10.542;2023-03-14T09:28:25;97973.00;;;12.50
64960;BMP180;51487;52.266;10.542;2023-03-14T09:30:51;97964.00;;;12.20
64960;BMP180;51487;52.266;10.542;2023-03-14T09:33:17;97974.00;;;12.30
64960;BMP180;51487;52.266;10.542;2023-03-14T09:35:43;97980.00;;;12.20
64960;BMP180;51487;52.266;10.542;2023-03-14T09:38:08;97972.00;;;12.30
64960;BMP180;51487;52.266;10.542;2023-03-14T09:40:35;97967.00;;;12.30
64960;BMP180;51487;52.266;10.542;2023-03-14T09:43:03;97974.00;;;12.50
64960;BMP180;51487;52.266;10.542;2023-03-14T09:45:40;97967.00;;;12.70
64960;BMP180;51487;52.266;10.542;2023-03-14T09:48:15;97955.00;;;13.00
64960;BMP180;51487;52.266;10.542;2023-03-14T09:50:54;97964.00;;;13.00
64960;BMP180;51487;52.266;10.542;2023-03-14T09:53:28;97978.00;;;12.80
64960;BMP180;51487;52.266;10.542;2023-03-14T09:56:13;97986.00;;;12.50
64960;BMP180;51487;52.266;10.542;2023-03-14T09:58:44;97997.00;;;12.30
64960;BMP180;51487;52.266;10.542;2023-03-14T10:01:16;97997.00;;;12.40
64960;BMP180;51487;52.266;10.542;2023-03-14T10:03:46;97983.00;;;12.40
64960;BMP180;51487;52.266;10.542;2023-03-14T10:06:13;97983.00;;;12.40
64960;BMP180;51487;52.266;10.542;2023-03-14T10:08:41;97980.00;;;12.70
64960;BMP180;51487;52.266;10.542;2023-03-14T10:11:26;97981.00;;;12.80
64960;BMP180;51487;52.266;10.542;2023-03-14T10:16:29;97979.00;;;12.70
64960;BMP180;51487;52.266;10.542;2023-03-14T10:19:09;97972.00;;;12.70
64960;BMP180;51487;52.266;10.542;2023-03-14T10:21:41;97986.00;;;12.90
64960;BMP180;51487;52.266;10.542;2023-03-14T10:24:10;97989.00;;;12.80
64960;BMP180;51487;52.266;10.542;2023-03-14T10:26:52;97986.00;;;13.00
64960;BMP180;51487;52.266;10.542;2023-03-14T10:29:24;97991.00;;;12.70
64960;BMP180;51487;52.266;10.542;2023-03-14T10:31:54;97982.00;;;12.60
64960;BMP180;51487;52.266;10.542;2023-03-14T10:34:32;97980.00;;;12.70
64960;BMP180;51487;52.266;10.542;2023-03-14T10:37:22;97992.00;;;13.10
64960;BMP180;51487;52.266;10.542;2023-03-14T10:39:53;97984.00;;;12.90
64960;BMP180;51487;52.266;10.542;2023-03-14T10:42:29;97975.00;;;12.90
64960;BMP180;51487;52.266;10.542;2023-03-14T10:45:25;97979.00;;;13.20
64960;BMP180;51487;52.266;10.542;2023-03-14T10:48:20;97986.00;;;13.30
64960;BMP180;51487;52.266;10.542;2023-03-14T10:53:57;97985.00;;;13.30
64960;BMP180;51487;52.266;10.542;2023-03-14T10:56:25;97986.00;;;13.20
64960;BMP180;51487;52.266;10.542;2023-03-14T10:58:58;97981.00;;;13.10
64960;BMP180;51487;52.266;10.542;2023-03-14T11:07:42;97987.00;;;13.90
64960;BMP180;51487;52.266;10.542;2023-03-14T11:10:26;97998.00;;;14.00
64960;BMP180;51487;52.266;10.542;2023-03-14T11:16:24;97992.00;;;13.50
64960;BMP180;51487;52.266;10.542;2023-03-14T11:19:00;98015.00;;;13.40
64960;BMP180;51487;52.266;10.542;2023-03-14T11:24:27;97992.00;;;13.00
64960;BMP180;51487;52.266;10.542;2023-03-14T11:27:22;98000.00;;;13.10
64960;BMP180;51487;52.266;10.542;2023-03-14T11:30:02;98002.00;;;13.00
64960;BMP180;51487;52.266;10.542;2023-03-14T11:32:56;97991.00;;;13.20
64960;BMP180;51487;52.266;10.542;2023-03-14T11:38:16;98000.00;;;12.80
64960;BMP180;51487;52.266;10.542;2023-03-14T11:40:51;98006.00;;;12.60
64960;BMP180;51487;52.266;10.542;2023-03-14T11:43:28;97987.00;;;12.70
64960;BMP180;51487;52.266;10.542;2023-03-14T11:46:21;97980.00;;;12.90
64960;BMP180;51487;52.266;10.542;2023-03-14T11:49:01;97977.00;;;12.80
64960;BMP180;51487;52.266;10.542;2023-03-14T11:51:35;97974.00;;;12.90
64960;BMP180;51487;52.266;10.542;2023-03-14T11:56:46;97976.00;;;13.30
64960;BMP180;51487;52.266;10.542;2023-03-14T11:59:31;97978.00;;;13.20
64960;BMP180;51487;52.266;10.542;2023-03-14T12:08:31;97990.00;;;12.80
64960;BMP180;51487;52.266;10.542;2023-03-14T12:16:49;231476.00;;;209.30
64960;BMP180;51487;52.266;10.542;2023-03-14T12:21:50;231476.00;;;209.30
64960;BMP180;51487;52.266;10.542;2023-03-14T12:24:49;231476.00;;;209.30
64960;BMP180;51487;52.266;10.542;2023-03-14T12:27:40;231476.00;;;209.30
64960;BMP180;51487;52.266;10.542;2023-03-14T12:30:28;231476.00;;;209.30
64960;BMP180;51487;52.266;10.542;2023-03-14T12:35:53;231476.00;;;209.30
64960;BMP180;51487;52.266;10.542;2023-03-14T12:43:52;231476.00;;;209.30
64960;BMP180;51487;52.266;10.542;2023-03-14T12:48:53;231476.00;;;209.30
64960;BMP180;51487;52.266;10.542;2023-03-14T12:51:39;231476.00;;;209.30
64960;BMP180;51487;52.266;10.542;2023-03-14T13:00:17;231476.00;;;209.30
64960;BMP180;51487;52.266;10.542;2023-03-14T13:02:47;231476.00;;;209.30
64960;BMP180;51487;52.266;10.542;2023-03-14T13:10:27;231476.00;;;209.30
64960;BMP180;51487;52.266;10.542;2023-03-14T13:13:17;231476.00;;;209.30
64960;BMP180;51487;52.266;10.542;2023-03-14T13:15:47;231476.00;;;209.30
64960;BMP180;51487;52.266;10.542;2023-03-14T13:20:54;231476.00;;;209.30
64960;BMP180;51487;52.266;10.542;2023-03-14T13:23:28;231476.00;;;209.30
64960;BMP180;51487;52.266;10.542;2023-03-14T13:25:56;231476.00;;;209.30
64960;BMP180;51487;52.266;10.542;2023-03-14T13:28:22;231476.00;;;209.30
64960;BMP180;51487;52.266;10.542;2023-03-14T13:30:49;231476.00;;;209.30
64960;BMP180;51487;52.266;10.542;2023-03-14T13:33:22;231476.00;;;209.30
64960;BMP180;51487;52.266;10.542;2023-03-14T13:35:59;231476.00;;;209.30
64960;BMP180;51487;52.266;10.542;2023-03-14T13:38:31;231476.00;;;209.30
64960;BMP180;51487;52.266;10.542;2023-03-14T13:41:04;231476.00;;;209.30
64960;BMP180;51487;52.266;10.542;2023-03-14T13:43:33;231476.00;;;209.30
64960;BMP180;51487;52.266;10.542;2023-03-14T13:46:06;231476.00;;;209.30
64960;BMP180;51487;52.266;10.542;2023-03-14T13:48:43;231476.00;;;209.30
64960;BMP180;51487;52.266;10.542;2023-03-14T13:51:13;231476.00;;;209.30
64960;BMP180;51487;52.266;10.542;2023-03-14T13:53:49;231476.00;;;209.30
64960;BMP180;51487;52.266;10.542;2023-03-14T13:56:18;231476.00;;;209.30
64960;BMP180;51487;52.266;10.542;2023-03-14T13:58:45;231476.00;;;209.30
64960;BMP180;51487;52.266;10.542;2023-03-14T14:03:47;231476.00;;;209.30
64960;BMP180;51487;52.266;10.542;2023-03-14T14:06:36;231476.00;;;209.30
64960;BMP180;51487;52.266;10.542;2023-03-14T14:09:14;231476.00;;;209.30
64960;BMP180;51487;52.266;10.542;2023-03-14T14:14:41;231476.00;;;209.30
64960;BMP180;51487;52.266;10.542;2023-03-14T14:17:42;231476.00;;;209.30
64960;BMP180;51487;52.266;10.542;2023-03-14T14:20:24;231476.00;;;209.30
64960;BMP180;51487;52.266;10.542;2023-03-14T14:23:01;231476.00;;;209.30
64960;BMP180;51487;52.266;10.542;2023-03-14T14:25:29;231476.00;;;209.30
64960;BMP180;51487;52.266;10.542;2023-03-14T14:27:56;231476.00;;;209.30
64960;BMP180;51487;52.266;10.542;2023-03-14T14:30:31;231476.00;;;209.30
64960;BMP180;51487;52.266;10.542;2023-03-14T14:33:19;231476.00;;;209.30
64960;BMP180;51487;52.266;10.542;2023-03-14T14:36:04;231476.00;;;209.30
64960;BMP180;51487;52.266;10.542;2023-03-14T14:38:30;231476.00;;;209.30
64960;BMP180;51487;52.266;10.542;2023-03-14T14:41:00;231476.00;;;209.30
64960;BMP180;51487;52.266;10.542;2023-03-14T14:43:30;231476.00;;;209.30
64960;BMP180;51487;52.266;10.542;2023-03-14T14:46:06;231476.00;;;209.30
64960;BMP180;51487;52.266;10.542;2023-03-14T14:48:37;231476.00;;;209.30
64960;BMP180;51487;52.266;10.542;2023-03-14T14:51:06;231476.00;;;209.30
64960;BMP180;51487;52.266;10.542;2023-03-14T14:53:40;231476.00;;;209.30
64960;BMP180;51487;52.266;10.542;2023-03-14T14:56:20;231476.00;;;209.30
64960;BMP180;51487;52.266;10.542;2023-03-14T14:58:59;231476.00;;;209.30
64960;BMP180;51487;52.266;10.542;2023-03-14T15:01:36;231476.00;;;209.30
64960;BMP180;51487;52.266;10.542;2023-03-14T15:04:10;231476.00;;;209.30
64960;BMP180;51487;52.266;10.542;2023-03-14T15:06:39;231476.00;;;209.30
64960;BMP180;51487;52.266;10.542;2023-03-14T15:09:10;231476.00;;;209.30
64960;BMP180;51487;52.266;10.542;2023-03-14T15:11:36;231476.00;;;209.30
64960;BMP180;51487;52.266;10.542;2023-03-14T15:14:02;231476.00;;;209.30
64960;BMP180;51487;52.266;10.542;2023-03-14T15:16:29;231476.00;;;209.30
64960;BMP180;51487;52.266;10.542;2023-03-14T15:18:59;231476.00;;;209.30